Latest Weather Observations for Latrobe Valley

IDV60801

Issued at 12:02 am EST Tuesday 26 July 2016 (issued every 30 minutes, with the page automatically refreshed every 10 minutes)

About weather observations | Map of weather stations | Latest weather observations for VIC | Other Formats
Station Details ID: 085280 Name: LATROBE VALLEY AIRPORT Lat: -38.21 Lon: 146.47 Height: 55.7 m
Data from the previous 72 hours. | See also: Recent months at Latrobe Valley
Date/Time
EST
Temp
°C
App
Temp
°C
Dew
Point
°C
Rel
Hum
%
Delta-T
°C
Wind Press
QNH
hPa
Press
MSL
hPa
Rain since
9am
mm
Dir  Spd
km/h
Gust
km/h
Spd
kts
Gust
kts
26/12:00am 7.5 -0.8 2.2 69 2.2 WNW 35 54 19 29 1005.9 1006.0 6.6
 
Date/Time
EST
Temp
°C
App
Temp
°C
Dew
Point
°C
Rel
Hum
%
Delta-T
°C
Wind Press
QNH
hPa
Press
MSL
hPa
Rain since
9am
mm
Dir  Spd
km/h
Gust
km/h
Spd
kts
Gust
kts
25/11:57pm 7.6 -0.7 2.1 68 2.3 WNW 35 54 19 29 1005.9 1006.0 6.6
25/11:30pm 8.1 0.3 2.6 68 2.3 WNW 33 50 18 27 1005.6 1005.7 6.6
25/11:05pm 8.3 1.5 3.0 69 2.3 WNW 28 46 15 25 1005.2 1005.3 6.6
25/11:00pm 8.2 1.4 3.3 71 2.1 WNW 28 41 15 22 1005.3 1005.4 6.6
25/10:30pm 8.3 0.8 3.2 70 2.2 W 32 41 17 22 1004.9 1005.0 6.6
25/10:00pm 7.6 1.9 5.1 84 1.1 WNW 24 33 13 18 1004.6 1004.7 6.6
25/09:35pm 7.7 1.0 5.5 86 1.0 WNW 30 43 16 23 1004.3 1004.4 6.6
25/09:30pm 7.9 0.2 5.5 85 1.1 WNW 35 52 19 28 1004.3 1004.4 6.6
25/09:16pm 8.3 -0.4 5.9 85 1.1 W 41 69 22 37 1004.2 1004.3 6.0
25/09:09pm 8.9 2.9 7.0 88 0.9 W 28 69 15 37 1003.7 1003.8 5.6
25/09:00pm 8.4 4.2 7.5 94 0.4 WSW 19 24 10 13 1003.7 1003.8 5.6
25/08:41pm 8.2 3.0 7.3 94 0.4 WNW 24 33 13 18 1003.5 1003.6 5.6
25/08:30pm 8.0 2.0 7.1 94 0.4 WNW 28 39 15 21 1003.3 1003.4 5.6
25/08:00pm 7.3 -1.0 6.1 92 0.5 W 39 57 21 31 1003.7 1003.8 2.8
25/07:56pm 7.4 -1.7 6.0 91 0.6 W 43 57 23 31 1003.7 1003.8 2.0
25/07:52pm 7.4 -3.0 5.9 90 0.7 W 50 83 27 45 1003.8 1003.9 1.8
25/07:44pm 7.5 -1.4 5.3 86 1.0 W 41 87 22 47 1003.4 1003.5 0.6
25/07:43pm 8.1 0.0 5.4 83 1.2 W 37 87 20 47 1003.2 1003.3 0.4
25/07:42pm 10.1 3.0 5.3 72 2.2 W 32 87 17 47 1003.3 1003.4 0.0
25/07:30pm 11.6 4.6 4.1 60 3.4 NW 30 44 16 24 1001.7 1001.8 0.0
25/07:03pm 11.9 4.4 3.4 56 3.8 NW 32 56 17 30 1001.2 1001.3 0.0
25/07:00pm 11.9 4.8 3.7 57 3.7 NW 30 44 16 24 1001.3 1001.4 0.0
25/06:30pm 11.9 4.4 3.2 55 3.8 NW 32 54 17 29 1001.4 1001.5 0.0
25/06:22pm 12.0 4.4 3.0 54 4.0 NW 32 50 17 27 1001.5 1001.6 0.0
25/06:15pm 12.0 4.2 2.7 53 4.1 NW 33 50 18 27 1001.6 1001.7 0.0
25/06:00pm 11.7 6.3 2.7 54 3.9 NW 20 32 11 17 1002.2 1002.3 0.0
25/05:30pm 11.3 6.0 2.9 56 3.7 NW 20 32 11 17 1002.6 1002.7 0.0
25/05:00pm 11.0 6.2 2.6 56 3.6 WNW 17 28 9 15 1002.9 1003.0 0.0
25/04:30pm 12.0 8.0 2.7 53 4.1 WNW 13 22 7 12 1003.1 1003.2 0.0
25/04:00pm 12.4 8.5 3.6 55 4.0 NW 13 24 7 13 1003.2 1003.3 0.0
25/03:30pm 12.3 7.2 4.3 58 3.6 NW 20 35 11 19 1003.7 1003.8 0.0
25/03:00pm 13.5 7.7 4.6 55 4.1 WNW 24 39 13 21 1004.1 1004.2 0.0
25/02:30pm 13.1 7.4 5.0 58 3.8 WNW 24 37 13 20 1004.3 1004.4 0.0
25/02:03pm 12.6 5.8 5.3 61 3.4 NW 30 50 16 27 1004.6 1004.7 0.0
25/02:00pm 12.8 6.1 5.5 61 3.4 NW 30 41 16 22 1004.7 1004.8 0.0
25/01:30pm 11.7 5.5 6.0 68 2.7 WNW 28 37 15 20 1005.5 1005.6 0.0
25/01:00pm 11.6 5.0 5.9 68 2.7 WNW 30 43 16 23 1005.8 1005.9 0.0
25/12:30pm 11.5 5.3 6.2 70 2.5 WNW 28 37 15 20 1006.0 1006.1 0.0
25/12:00pm 11.1 4.2 6.5 73 2.2 WNW 32 43 17 23 1006.4 1006.5 0.0
25/11:30am 10.9 2.9 5.7 70 2.4 WNW 37 50 20 27 1006.6 1006.7 0.0
25/11:00am 10.9 3.3 5.9 71 2.3 WNW 35 48 19 26 1006.7 1006.8 0.0
25/10:30am 10.8 3.2 6.0 72 2.2 WNW 35 57 19 31 1006.9 1007.0 0.0
25/10:28am 10.8 3.8 6.0 72 2.2 WNW 32 57 17 31 1006.8 1006.9 0.0
25/10:00am 9.9 3.6 5.9 76 1.9 WNW 28 41 15 22 1006.9 1007.0 0.0
25/09:30am 9.9 3.9 5.3 73 2.1 WNW 26 35 14 19 1006.8 1006.9 0.0
25/09:00am 9.4 3.3 5.0 74 2.0 WNW 26 33 14 18 1006.8 1006.9 0.0
25/08:30am 9.1 3.4 5.1 76 1.8 WNW 24 37 13 20 1006.7 1006.8 0.0
25/08:00am 8.6 3.7 5.0 78 1.6 WNW 20 28 11 15 1006.5 1006.6 0.0
25/07:30am 8.0 2.0 5.1 82 1.3 WNW 26 35 14 19 1006.3 1006.4 0.0
25/07:00am 7.8 2.1 4.7 81 1.4 WNW 24 33 13 18 1005.8 1005.9 0.0
25/06:30am 7.6 2.3 4.9 83 1.2 WNW 22 30 12 16 1005.6 1005.7 0.0
25/06:00am 5.3 3.0 4.6 95 0.3 NW 6 19 3 10 1005.5 1005.6 0.0
25/05:30am 4.3 1.2 3.6 95 0.3 SSE 9 9 5 5 1005.5 1005.6 0.0
25/05:00am 3.1 0.2 2.4 95 0.3 NE 7 9 4 5 1005.2 1005.3 0.0
25/04:30am 3.0 0.2 2.3 95 0.3 SSE 6 9 3 5 1005.1 1005.2 0.0
25/04:00am 2.3 -0.2 1.4 94 0.3 ENE 4 7 2 4 1004.8 1004.9 0.0
25/03:30am 2.0 -1.0 0.8 92 0.5 NW 6 7 3 4 1004.6 1004.7 0.0
25/03:00am 2.5 0.3 1.2 91 0.5 NW 2 9 1 5 1004.6 1004.7 0.0
25/02:30am 3.0 -0.4 1.8 92 0.5 W 9 13 5 7 1004.5 1004.6 0.0
25/02:00am 3.2 -0.2 1.9 91 0.5 WSW 9 13 5 7 1004.5 1004.6 0.0
25/01:30am 3.0 0.0 2.0 93 0.4 W 7 9 4 5 1004.6 1004.7 0.0
25/01:00am 4.1 1.4 2.9 92 0.5 NW 6 9 3 5 1004.8 1004.9 0.0
25/12:30am 4.5 3.0 3.2 91 0.5 CALM 0 7 0 4 1004.7 1004.8 0.0
25/12:00am 4.7 2.9 3.4 91 0.5 SW 2 7 1 4 1005.1 1005.2 0.0
 
Date/Time
EST
Temp
°C
App
Temp
°C
Dew
Point
°C
Rel
Hum
%
Delta-T
°C
Wind Press
QNH
hPa
Press
MSL
hPa
Rain since
9am
mm
Dir  Spd
km/h
Gust
km/h
Spd
kts
Gust
kts
24/11:30pm 5.0 2.4 3.3 89 0.7 S 6 9 3 5 1005.1 1005.2 0.0
24/11:00pm 5.1 3.7 3.6 90 0.6 CALM 0 0 0 0 1004.9 1005.0 0.0
24/10:30pm 5.2 2.5 3.5 89 0.7 WSW 7 11 4 6 1005.0 1005.1 0.0
24/10:00pm 5.8 4.1 3.8 87 0.8 NE 2 7 1 4 1005.3 1005.4 0.0
24/09:30pm 5.8 4.0 3.5 85 1.0 NE 2 6 1 3 1005.2 1005.3 0.0
24/09:00pm 6.3 3.4 2.6 77 1.5 E 7 11 4 6 1005.4 1005.5 0.0
24/08:30pm 5.4 2.7 2.6 82 1.1 S 6 9 3 5 1005.7 1005.8 0.0
24/08:00pm 6.3 2.6 2.4 76 1.6 NE 11 13 6 7 1005.8 1005.9 0.0
24/07:30pm 8.1 4.9 2.8 69 2.2 ENE 9 13 5 7 1005.7 1005.8 0.0
24/07:00pm 7.6 4.8 2.9 72 2.0 ENE 7 9 4 5 1005.9 1006.0 0.0
24/06:30pm 7.5 5.0 3.6 76 1.7 NNE 6 7 3 4 1006.0 1006.1 0.0
24/06:00pm 8.3 5.7 3.0 69 2.3 ENE 6 7 3 4 1006.0 1006.1 0.0
24/05:30pm 8.5 6.8 3.8 72 2.0 N 2 6 1 3 1006.3 1006.4 0.0
24/05:00pm 8.8 5.7 3.4 69 2.3 NW 9 13 5 7 1006.5 1006.6 0.0
24/04:30pm 9.9 4.8 3.2 63 2.9 NW 19 26 10 14 1006.5 1006.6 0.0
24/04:00pm 10.3 5.2 3.1 61 3.1 WNW 19 33 10 18 1006.6 1006.7 0.0
24/03:30pm 10.7 5.6 3.3 60 3.2 WNW 19 24 10 13 1006.6 1006.7 0.0
24/03:00pm 11.5 6.3 3.3 57 3.6 WNW 20 30 11 16 1006.7 1006.8 0.0
24/02:30pm 11.8 7.2 3.8 58 3.6 W 17 24 9 13 1006.8 1006.9 0.0
24/02:00pm 11.8 6.9 4.3 60 3.4 NW 19 26 10 14 1007.2 1007.3 0.0
24/01:30pm 11.0 5.9 2.8 57 3.6 WNW 19 28 10 15 1007.3 1007.4 0.0
24/01:00pm 11.0 5.3 2.6 56 3.6 NW 22 30 12 16 1007.8 1007.9 0.0
24/12:30pm 11.4 5.6 2.4 54 3.9 NNW 22 37 12 20 1008.3 1008.4 0.0
24/12:08pm 11.1 5.6 1.9 53 3.9 NW 20 41 11 22 1008.4 1008.5 0.0
24/12:00pm 11.0 8.4 4.0 62 3.1 NE 7 13 4 7 1008.8 1008.9 0.0
24/11:30am 10.2 8.6 4.4 67 2.6 SW 2 7 1 4 1009.7 1009.8 0.0
24/11:00am 9.9 8.3 4.5 69 2.4 ESE 2 9 1 5 1010.2 1010.3 0.0
24/10:30am 8.5 7.1 3.8 72 2.0 CALM 0 7 0 4 1010.4 1010.5 0.0
24/10:00am 7.2 5.8 3.6 78 1.5 CALM 0 0 0 0 1010.6 1010.7 0.0
24/09:30am 7.1 5.7 3.7 79 1.5 CALM 0 0 0 0 1011.0 1011.1 0.0
24/09:00am 5.0 2.4 4.0 93 0.4 NNE 7 9 4 5 1010.9 1011.0 5.4
24/08:30am 3.0 0.2 2.3 95 0.3 ESE 6 7 3 4 1011.1 1011.2 5.4
24/08:00am 1.6 -0.6 0.9 95 0.3 ENE 2 7 1 4 1011.0 1011.1 5.4
24/07:30am 1.7 -1.8 1.0 95 0.3 E 9 13 5 7 1010.9 1011.0 5.4
24/07:00am 1.9 0.1 1.2 95 0.3 CALM 0 0 0 0 1010.8 1010.9 5.4
24/06:30am 1.8 0.0 0.9 94 0.3 CALM 0 0 0 0 1010.7 1010.8 5.4
24/06:00am 3.0 1.3 2.1 94 0.4 CALM 0 0 0 0 1010.9 1011.0 5.4
24/05:30am 3.2 1.6 2.3 94 0.4 CALM 0 0 0 0 1011.0 1011.1 5.4
24/05:00am 3.1 1.5 2.2 94 0.4 CALM 0 0 0 0 1011.1 1011.2 5.4
24/04:30am 2.9 1.2 1.9 93 0.4 CALM 0 6 0 3 1011.3 1011.4 5.4
24/04:00am 3.2 1.6 2.2 93 0.4 CALM 0 2 0 1 1011.3 1011.4 5.4
24/03:30am 3.1 0.1 1.8 91 0.5 W 7 9 4 5 1011.3 1011.4 5.4
24/03:00am 3.9 1.9 2.3 89 0.6 WNW 2 6 1 3 1011.4 1011.5 5.4
24/02:30am 4.6 1.8 2.9 89 0.7 WSW 7 11 4 6 1011.7 1011.8 5.4
24/02:00am 4.9 2.1 2.9 87 0.8 WSW 7 13 4 7 1011.5 1011.6 5.4
24/01:30am 5.4 2.3 3.4 87 0.8 WNW 9 15 5 8 1011.5 1011.6 5.4
24/01:00am 6.1 2.7 3.9 86 0.9 W 11 13 6 7 1011.7 1011.8 5.4
24/12:30am 6.1 3.1 3.9 86 0.9 WNW 9 13 5 7 1011.9 1012.0 5.4
24/12:00am 6.1 2.7 3.9 86 0.9 W 11 15 6 8 1012.1 1012.3 5.4
 
Date/Time
EST
Temp
°C
App
Temp
°C
Dew
Point
°C
Rel
Hum
%
Delta-T
°C
Wind Press
QNH
hPa
Press
MSL
hPa
Rain since
9am
mm
Dir  Spd
km/h
Gust
km/h
Spd
kts
Gust
kts
23/11:30pm 6.0 2.6 3.8 86 0.9 W 11 20 6 11 1011.9 1012.0 5.4
23/11:00pm 6.0 2.2 4.0 87 0.9 W 13 19 7 10 1011.6 1011.7 5.4
23/10:30pm 5.8 0.3 3.8 87 0.8 WNW 22 30 12 16 1011.5 1011.6 5.2
23/10:00pm 5.9 0.8 3.9 87 0.8 WNW 20 28 11 15 1011.2 1011.3 5.2
23/09:30pm 6.1 1.0 4.1 87 0.9 W 20 28 11 15 1011.0 1011.1 5.2
23/09:08pm 6.2 -0.8 3.9 85 1.0 WNW 30 48 16 26 1010.7 1010.8 5.2
23/09:00pm 6.3 -0.7 4.1 86 0.9 W 30 43 16 23 1010.7 1010.8 5.2
23/08:30pm 6.0 -0.6 4.3 89 0.7 W 28 35 15 19 1010.3 1010.4 5.0
23/08:00pm 6.1 -1.8 4.1 87 0.9 W 35 48 19 26 1009.7 1009.8 4.8
23/07:30pm 5.6 -2.4 3.6 87 0.8 WNW 35 46 19 25 1008.9 1009.0 4.8
23/07:04pm 6.2 -2.5 3.9 85 1.0 W 39 57 21 31 1008.9 1009.0 4.4
23/07:00pm 6.4 -2.8 3.6 82 1.2 W 41 57 22 31 1008.8 1008.9 4.4
23/06:55pm 6.4 -1.5 4.1 85 1.0 W 35 54 19 29 1008.8 1008.9 4.4
23/06:30pm 6.0 -0.6 4.2 88 0.8 W 28 37 15 20 1008.5 1008.6 4.2
23/06:00pm 6.1 -2.3 3.6 84 1.1 W 37 54 20 29 1008.0 1008.1 4.0
23/05:35pm 6.7 -2.0 4.0 83 1.2 W 39 65 21 35 1007.4 1007.5 4.0
23/05:30pm 7.0 -1.3 4.0 81 1.3 W 37 52 20 28 1007.3 1007.4 3.8
23/05:02pm 6.8 -1.2 3.9 82 1.2 W 35 57 19 31 1006.6 1006.7 3.8
23/05:00pm 6.9 -1.1 4.0 82 1.3 W 35 50 19 27 1006.5 1006.6 3.8
23/04:50pm 6.3 -2.0 4.3 87 0.9 WSW 37 46 20 25 1006.4 1006.5 3.8
23/04:34pm 6.2 -2.1 4.0 86 0.9 WSW 37 54 20 29 1006.1 1006.2 3.2
23/04:30pm 6.6 -1.3 4.1 84 1.1 WSW 35 54 19 29 1006.0 1006.1 3.0
23/04:28pm 7.4 0.1 4.5 82 1.3 WSW 32 44 17 24 1006.0 1006.1 2.8
23/04:00pm 7.3 -0.9 4.6 83 1.2 W 37 52 20 28 1005.5 1005.6 2.8
23/03:57pm 7.2 -1.5 4.3 82 1.3 W 39 52 21 28 1005.4 1005.5 2.8
23/03:39pm 6.6 -2.4 4.3 85 1.0 W 41 59 22 32 1005.7 1005.8 2.6
23/03:38pm 6.7 -2.7 4.4 85 1.0 W 43 59 23 32 1005.6 1005.7 2.4
23/03:33pm 7.0 -2.1 4.1 82 1.3 W 41 59 22 32 1005.5 1005.6 2.2
23/03:30pm 7.2 -2.3 3.8 79 1.5 W 43 59 23 32 1005.5 1005.6 2.0
23/03:05pm 8.5 -0.3 3.8 72 2.0 W 39 57 21 31 1004.3 1004.4 1.8
23/03:00pm 8.7 0.0 4.1 73 2.0 W 39 54 21 29 1004.2 1004.3 1.8
23/02:30pm 7.3 -0.5 4.8 84 1.1 W 35 54 19 29 1004.3 1004.4 1.8
23/02:22pm 7.0 -0.9 4.3 83 1.2 WNW 35 54 19 29 1004.2 1004.3 1.8
23/02:00pm 5.6 -3.2 3.6 87 0.8 W 39 54 21 29 1004.6 1004.7 1.8
23/01:33pm 6.6 -2.5 3.9 83 1.2 W 41 59 22 32 1004.4 1004.5 1.8
23/01:30pm 6.5 -2.6 3.8 83 1.1 WNW 41 54 22 29 1004.3 1004.4 1.8
23/01:25pm 6.3 -2.8 3.8 84 1.1 WNW 41 54 22 29 1004.1 1004.2 1.8
23/01:11pm 6.0 -3.1 4.0 87 0.9 W 41 57 22 31 1004.2 1004.3 1.8
23/01:06pm 6.1 -1.9 3.8 85 1.0 WNW 35 56 19 30 1004.0 1004.1 1.6
23/01:04pm 6.4 -1.5 4.2 86 0.9 WNW 35 44 19 24 1004.0 1004.1 1.6
23/01:00pm 6.7 -1.5 4.7 87 0.9 WNW 37 50 20 27 1003.8 1003.9 1.4
23/12:43pm 5.8 -3.8 3.5 85 1.0 WNW 43 67 23 36 1004.1 1004.2 1.2
23/12:37pm 6.4 -2.1 3.0 79 1.4 W 37 63 20 34 1003.5 1003.6 1.0
23/12:30pm 6.9 -1.1 3.9 81 1.3 WNW 35 44 19 24 1003.7 1003.8 1.0
23/12:20pm 6.6 -1.3 4.3 85 1.0 WNW 35 46 19 25 1003.9 1004.0 1.0
23/12:00pm 4.3 -6.1 2.3 87 0.8 W 46 70 25 38 1004.4 1004.5 0.8
23/11:55am 6.7 -3.0 2.8 76 1.6 W 43 61 23 33 1003.8 1003.9 0.4
23/11:30am 6.5 -1.1 4.0 84 1.1 WNW 33 44 18 24 1003.6 1003.7 0.4
23/11:00am 6.1 -1.6 3.3 82 1.2 WNW 33 44 18 24 1003.5 1003.6 0.4
23/10:30am 6.1 -1.4 3.4 83 1.1 W 32 46 17 25 1003.0 1003.1 0.4
23/10:09am 5.9 -1.2 3.4 84 1.0 W 30 50 16 27 1002.7 1002.8 0.4
23/10:07am 5.7 -2.1 3.0 83 1.1 W 33 50 18 27 1002.8 1002.9 0.4
23/10:00am 5.3 -3.7 2.7 83 1.1 W 39 56 21 30 1002.6 1002.7 0.4
23/09:50am 5.2 -3.8 2.7 84 1.0 W 39 61 21 33 1002.3 1002.4 0.4
23/09:38am 6.9 -2.2 1.8 70 2.1 WSW 39 57 21 31 1001.4 1001.5 0.0
23/09:30am 6.8 -4.0 1.7 70 2.1 WSW 48 63 26 34 1001.2 1001.3 0.0
23/09:00am 6.5 -1.7 2.9 78 1.5 W 35 59 19 32 1000.3 1000.4 21.6
23/08:47am 6.4 -4.1 3.4 81 1.3 W 48 69 26 37 1000.0 1000.1 21.6
23/08:46am 6.4 -4.2 3.2 80 1.3 W 48 69 26 37 999.9 1000.0 21.6
23/08:43am 6.4 -3.4 3.2 80 1.3 W 44 69 24 37 1000.0 1000.1 21.6
23/08:37am 6.4 -1.0 4.2 86 0.9 W 32 54 17 29 1000.0 1000.1 21.6
23/08:30am 6.4 -1.1 4.6 88 0.8 W 33 50 18 27 999.9 1000.0 21.4
23/08:09am 6.6 -0.8 4.1 84 1.1 W 32 50 17 27 999.2 999.3 21.4
23/08:00am 6.4 -0.6 4.1 85 1.0 W 30 41 16 22 999.0 999.1 21.2
23/07:54am 6.1 -0.6 3.9 86 0.9 W 28 43 15 23 998.8 998.9 21.2
23/07:44am 6.3 -2.0 4.3 87 0.9 WSW 37 63 20 34 998.8 998.9 21.2
23/07:34am 6.5 -1.3 5.0 90 0.7 W 35 57 19 31 998.6 998.7 20.6
23/07:30am 6.6 -1.2 5.1 90 0.7 W 35 44 19 24 998.4 998.5 20.6
23/07:10am 6.7 -0.7 4.9 88 0.8 WNW 33 44 18 24 997.5 997.6 20.0
23/07:08am 6.7 -0.7 4.9 88 0.8 WNW 33 48 18 26 997.5 997.6 20.0
23/07:00am 6.7 -0.5 5.2 90 0.7 W 32 48 17 26 997.3 997.3 20.0
23/06:59am 6.6 -0.6 5.2 91 0.6 W 32 50 17 27 997.5 997.6 20.0
23/06:54am 6.5 -1.7 5.0 90 0.7 WSW 37 50 20 27 997.5 997.6 20.0
23/06:45am 7.4 -1.0 5.5 88 0.8 W 39 57 21 31 997.2 997.2 19.2
23/06:30am 7.6 0.3 5.4 86 1.0 W 33 52 18 28 996.3 996.3 18.6
23/06:06am 7.7 -0.8 5.3 85 1.1 WNW 39 57 21 31 996.0 996.0 18.6
23/06:00am 7.7 -1.2 5.3 85 1.1 WNW 41 61 22 33 995.9 995.9 18.6
23/05:40am 7.6 -0.4 5.6 87 0.9 W 37 67 20 36 995.4 995.4 18.6
23/05:30am 7.4 0.1 5.5 88 0.8 W 33 48 18 26 995.3 995.3 18.6
23/05:17am 7.4 0.3 5.7 89 0.8 W 32 52 17 28 994.9 994.9 18.4
23/05:12am 7.3 0.7 5.9 91 0.6 W 30 39 16 21 994.8 994.8 18.4
23/05:00am 7.2 2.1 5.8 91 0.6 W 22 33 12 18 994.8 994.8 18.4
23/04:34am 6.7 -0.5 5.0 89 0.7 WSW 32 43 17 23 994.1 994.2 18.4
23/04:30am 6.7 -1.1 5.0 89 0.7 WSW 35 48 19 26 994.0 994.1 18.4
23/04:25am 6.8 -2.7 5.0 88 0.8 WSW 44 61 24 33 993.7 993.8 18.2
23/04:19am 7.1 -3.2 4.9 86 1.0 W 48 61 26 33 993.4 993.5 18.2
23/04:18am 7.3 -2.9 5.3 87 0.9 W 48 63 26 34 993.3 993.4 18.2
23/04:05am 7.9 -2.5 5.9 87 0.9 WNW 50 70 27 38 992.0 992.1 17.8
23/04:00am 8.2 -3.1 5.5 83 1.2 WNW 54 87 29 47 991.6 991.7 17.8
23/03:50am 8.7 -2.2 5.3 79 1.5 WNW 52 83 28 45 991.4 991.5 17.8
23/03:40am 8.8 -0.5 5.2 78 1.6 WNW 43 61 23 33 990.9 991.0 17.6
23/03:30am 9.4 1.2 5.0 74 2.0 WNW 37 48 20 26 991.0 991.1 17.4
23/03:02am 9.4 2.2 5.0 74 2.0 WNW 32 52 17 28 990.9 991.0 17.4
23/03:00am 9.3 2.5 5.3 76 1.8 WNW 30 44 16 24 991.0 991.1 17.4
23/02:49am 9.1 2.8 5.5 78 1.6 WNW 28 43 15 23 991.2 991.3 17.4
23/02:30am 7.8 3.6 5.9 88 0.9 W 17 22 9 12 991.4 991.5 17.4
23/02:00am 7.8 2.7 6.1 89 0.8 W 22 32 12 17 991.4 991.5 17.4
23/01:38am 8.0 1.8 6.1 88 0.9 WNW 28 41 15 22 991.5 991.6 17.4
23/01:30am 8.0 1.8 6.3 89 0.8 WNW 28 39 15 21 991.8 991.9 17.4
23/01:28am 8.0 1.9 6.5 90 0.7 WNW 28 39 15 21 991.7 991.8 17.4
23/01:19am 8.1 2.8 6.6 90 0.7 WNW 24 33 13 18 991.8 991.9 16.8
23/01:11am 8.2 1.7 6.3 88 0.9 WNW 30 48 16 26 991.7 991.8 16.4
23/01:00am 8.3 1.9 6.9 91 0.7 WNW 30 43 16 23 992.2 992.3 15.8
23/12:55am 8.3 3.1 7.1 92 0.6 W 24 43 13 23 992.3 992.4 15.6
23/12:30am 8.3 2.6 6.9 91 0.7 W 26 39 14 21 992.2 992.3 14.2
23/12:12am 8.6 3.4 7.4 92 0.6 W 24 39 13 21 992.5 992.6 13.6

Other Formats:

Comma delimited format used in spreadsheet applications
http://www.bom.gov.au/fwo/IDV60801/IDV60801.94891.axf

JavaScript Object Notation format (JSON) in row-major order
http://www.bom.gov.au/fwo/IDV60801/IDV60801.94891.json